sensor_id;sensor_type;location;lat;lon;timestamp;P1;durP1;ratioP1;P2;durP2;ratioP2
29238;SDS011;16267;48.194;11.546;2023-09-12T00:00:55;9.85;;;5.45;;
29238;SDS011;16267;48.194;11.546;2023-09-12T00:03:22;9.27;;;5.63;;
29238;SDS011;16267;48.194;11.546;2023-09-12T00:05:58;9.95;;;5.93;;
29238;SDS011;16267;48.194;11.546;2023-09-12T00:08:25;13.88;;;6.03;;
29238;SDS011;16267;48.194;11.546;2023-09-12T00:13:30;8.80;;;5.05;;
29238;SDS011;16267;48.194;11.546;2023-09-12T00:15:56;7.97;;;5.50;;
29238;SDS011;16267;48.194;11.546;2023-09-12T00:18:23;10.10;;;5.75;;
29238;SDS011;16267;48.194;11.546;2023-09-12T00:20:49;10.15;;;6.20;;
29238;SDS011;16267;48.194;11.546;2023-09-12T00:23:16;9.13;;;5.55;;
29238;SDS011;16267;48.194;11.546;2023-09-12T00:25:42;8.77;;;5.32;;
29238;SDS011;16267;48.194;11.546;2023-09-12T00:28:08;6.75;;;5.15;;
29238;SDS011;16267;48.194;11.546;2023-09-12T00:30:35;10.35;;;5.57;;
29238;SDS011;16267;48.194;11.546;2023-09-12T00:33:01;13.63;;;6.07;;
29238;SDS011;16267;48.194;11.546;2023-09-12T00:35:27;7.88;;;5.18;;
29238;SDS011;16267;48.194;11.546;2023-09-12T00:37:53;10.07;;;5.63;;
29238;SDS011;16267;48.194;11.546;2023-09-12T00:40:19;10.18;;;5.70;;
29238;SDS011;16267;48.194;11.546;2023-09-12T00:42:45;10.35;;;5.55;;
29238;SDS011;16267;48.194;11.546;2023-09-12T00:45:10;7.18;;;5.38;;
29238;SDS011;16267;48.194;11.546;2023-09-12T00:47:36;10.05;;;5.30;;
29238;SDS011;16267;48.194;11.546;2023-09-12T00:50:02;9.50;;;5.57;;
29238;SDS011;16267;48.194;11.546;2023-09-12T00:52:30;8.68;;;5.13;;
29238;SDS011;16267;48.194;11.546;2023-09-12T00:54:58;12.18;;;5.85;;
29238;SDS011;16267;48.194;11.546;2023-09-12T00:57:24;7.30;;;5.30;;
29238;SDS011;16267;48.194;11.546;2023-09-12T00:59:51;9.50;;;5.40;;
29238;SDS011;16267;48.194;11.546;2023-09-12T01:02:18;7.53;;;4.97;;
29238;SDS011;16267;48.194;11.546;2023-09-12T01:04:45;9.55;;;6.20;;
29238;SDS011;16267;48.194;11.546;2023-09-12T01:07:12;8.07;;;5.32;;
29238;SDS011;16267;48.194;11.546;2023-09-12T01:09:38;8.77;;;5.70;;
29238;SDS011;16267;48.194;11.546;2023-09-12T01:12:05;10.45;;;5.90;;
29238;SDS011;16267;48.194;11.546;2023-09-12T01:14:31;7.75;;;5.15;;
29238;SDS011;16267;48.194;11.546;2023-09-12T01:16:57;9.27;;;5.75;;
29238;SDS011;16267;48.194;11.546;2023-09-12T01:19:24;7.18;;;5.60;;
29238;SDS011;16267;48.194;11.546;2023-09-12T01:27:57;8.88;;;5.53;;
29238;SDS011;16267;48.194;11.546;2023-09-12T01:30:28;8.27;;;5.38;;
29238;SDS011;16267;48.194;11.546;2023-09-12T01:32:57;9.13;;;5.28;;
29238;SDS011;16267;48.194;11.546;2023-09-12T01:35:24;8.38;;;4.70;;
29238;SDS011;16267;48.194;11.546;2023-09-12T01:37:50;8.73;;;5.45;;
29238;SDS011;16267;48.194;11.546;2023-09-12T01:40:16;8.57;;;5.25;;
29238;SDS011;16267;48.194;11.546;2023-09-12T01:42:45;8.35;;;5.43;;
29238;SDS011;16267;48.194;11.546;2023-09-12T01:45:13;8.05;;;5.55;;
29238;SDS011;16267;48.194;11.546;2023-09-12T01:47:43;9.30;;;5.13;;
29238;SDS011;16267;48.194;11.546;2023-09-12T01:50:12;9.63;;;5.65;;
29238;SDS011;16267;48.194;11.546;2023-09-12T01:52:40;14.35;;;5.63;;
29238;SDS011;16267;48.194;11.546;2023-09-12T01:55:06;8.32;;;4.95;;
29238;SDS011;16267;48.194;11.546;2023-09-12T01:57:34;9.23;;;5.15;;
29238;SDS011;16267;48.194;11.546;2023-09-12T02:00:02;9.35;;;5.22;;
29238;SDS011;16267;48.194;11.546;2023-09-12T02:02:29;7.47;;;4.78;;
29238;SDS011;16267;48.194;11.546;2023-09-12T02:07:44;8.43;;;5.60;;
29238;SDS011;16267;48.194;11.546;2023-09-12T02:10:11;8.73;;;4.57;;
29238;SDS011;16267;48.194;11.546;2023-09-12T02:12:38;8.25;;;5.20;;
29238;SDS011;16267;48.194;11.546;2023-09-12T02:15:04;9.25;;;4.95;;
29238;SDS011;16267;48.194;11.546;2023-09-12T02:17:30;8.82;;;4.60;;
29238;SDS011;16267;48.194;11.546;2023-09-12T02:19:56;9.13;;;5.70;;
29238;SDS011;16267;48.194;11.546;2023-09-12T02:22:22;10.25;;;5.22;;
29238;SDS011;16267;48.194;11.546;2023-09-12T02:24:48;7.68;;;4.90;;
29238;SDS011;16267;48.194;11.546;2023-09-12T02:27:15;6.35;;;4.47;;
29238;SDS011;16267;48.194;11.546;2023-09-12T02:29:40;8.40;;;4.60;;
29238;SDS011;16267;48.194;11.546;2023-09-12T02:32:07;10.80;;;4.82;;
29238;SDS011;16267;48.194;11.546;2023-09-12T02:34:33;7.90;;;5.00;;
29238;SDS011;16267;48.194;11.546;2023-09-12T02:36:59;9.20;;;4.72;;
29238;SDS011;16267;48.194;11.546;2023-09-12T02:39:25;7.93;;;5.03;;
29238;SDS011;16267;48.194;11.546;2023-09-12T02:41:51;6.18;;;4.88;;
29238;SDS011;16267;48.194;11.546;2023-09-12T02:44:17;7.20;;;4.85;;
29238;SDS011;16267;48.194;11.546;2023-09-12T02:46:42;6.60;;;4.60;;
29238;SDS011;16267;48.194;11.546;2023-09-12T02:49:08;10.75;;;5.13;;
29238;SDS011;16267;48.194;11.546;2023-09-12T02:51:37;6.43;;;4.40;;
29238;SDS011;16267;48.194;11.546;2023-09-12T02:54:04;7.68;;;5.28;;
29238;SDS011;16267;48.194;11.546;2023-09-12T02:56:30;7.43;;;4.88;;
29238;SDS011;16267;48.194;11.546;2023-09-12T02:58:55;7.53;;;4.70;;
29238;SDS011;16267;48.194;11.546;2023-09-12T03:01:21;7.28;;;4.82;;
29238;SDS011;16267;48.194;11.546;2023-09-12T03:03:49;8.52;;;5.28;;
29238;SDS011;16267;48.194;11.546;2023-09-12T03:06:15;7.07;;;4.88;;
29238;SDS011;16267;48.194;11.546;2023-09-12T03:08:43;7.97;;;4.40;;
29238;SDS011;16267;48.194;11.546;2023-09-12T03:11:09;6.50;;;4.70;;
29238;SDS011;16267;48.194;11.546;2023-09-12T03:13:41;8.77;;;5.03;;
29238;SDS011;16267;48.194;11.546;2023-09-12T03:16:14;6.70;;;4.45;;
29238;SDS011;16267;48.194;11.546;2023-09-12T03:18:40;7.60;;;4.50;;
29238;SDS011;16267;48.194;11.546;2023-09-12T03:21:06;7.25;;;4.55;;
29238;SDS011;16267;48.194;11.546;2023-09-12T03:23:32;6.78;;;4.47;;
29238;SDS011;16267;48.194;11.546;2023-09-12T03:26:02;5.70;;;4.10;;
29238;SDS011;16267;48.194;11.546;2023-09-12T03:28:29;6.72;;;4.53;;
29238;SDS011;16267;48.194;11.546;2023-09-12T03:31:03;8.10;;;4.53;;
29238;SDS011;16267;48.194;11.546;2023-09-12T03:33:42;14.63;;;5.22;;
29238;SDS011;16267;48.194;11.546;2023-09-12T03:36:14;9.32;;;4.88;;
29238;SDS011;16267;48.194;11.546;2023-09-12T03:38:40;8.70;;;4.82;;
29238;SDS011;16267;48.194;11.546;2023-09-12T03:41:06;7.20;;;4.45;;
29238;SDS011;16267;48.194;11.546;2023-09-12T03:43:32;8.75;;;4.95;;
29238;SDS011;16267;48.194;11.546;2023-09-12T03:45:59;8.80;;;4.45;;
29238;SDS011;16267;48.194;11.546;2023-09-12T03:48:25;9.15;;;5.10;;
29238;SDS011;16267;48.194;11.546;2023-09-12T03:50:50;6.95;;;4.60;;
29238;SDS011;16267;48.194;11.546;2023-09-12T03:53:16;7.72;;;4.65;;
29238;SDS011;16267;48.194;11.546;2023-09-12T03:55:42;6.72;;;4.70;;
29238;SDS011;16267;48.194;11.546;2023-09-12T03:58:08;7.53;;;4.47;;
29238;SDS011;16267;48.194;11.546;2023-09-12T04:00:34;7.03;;;4.47;;
29238;SDS011;16267;48.194;11.546;2023-09-12T04:03:00;6.93;;;4.45;;
29238;SDS011;16267;48.194;11.546;2023-09-12T04:05:26;8.45;;;4.57;;
29238;SDS011;16267;48.194;11.546;2023-09-12T04:07:52;6.25;;;4.50;;
29238;SDS011;16267;48.194;11.546;2023-09-12T04:10:20;6.57;;;4.90;;
29238;SDS011;16267;48.194;11.546;2023-09-12T04:12:46;6.90;;;4.50;;
29238;SDS011;16267;48.194;11.546;2023-09-12T04:15:12;7.07;;;4.53;;
29238;SDS011;16267;48.194;11.546;2023-09-12T04:17:38;10.13;;;4.38;;
29238;SDS011;16267;48.194;11.546;2023-09-12T04:20:04;7.30;;;4.28;;
29238;SDS011;16267;48.194;11.546;2023-09-12T04:22:31;7.55;;;4.25;;
29238;SDS011;16267;48.194;11.546;2023-09-12T04:24:56;8.68;;;4.95;;
29238;SDS011;16267;48.194;11.546;2023-09-12T04:27:22;6.10;;;4.10;;
29238;SDS011;16267;48.194;11.546;2023-09-12T04:29:48;5.45;;;3.75;;
29238;SDS011;16267;48.194;11.546;2023-09-12T04:32:13;6.70;;;4.30;;
29238;SDS011;16267;48.194;11.546;2023-09-12T04:34:44;8.30;;;4.50;;
29238;SDS011;16267;48.194;11.546;2023-09-12T04:37:10;6.50;;;4.40;;
29238;SDS011;16267;48.194;11.546;2023-09-12T04:39:35;6.75;;;4.22;;
29238;SDS011;16267;48.194;11.546;2023-09-12T04:42:01;7.22;;;4.18;;
29238;SDS011;16267;48.194;11.546;2023-09-12T04:44:29;7.68;;;4.93;;
29238;SDS011;16267;48.194;11.546;2023-09-12T04:47:01;7.55;;;4.25;;
29238;SDS011;16267;48.194;11.546;2023-09-12T04:49:28;9.48;;;5.10;;
29238;SDS011;16267;48.194;11.546;2023-09-12T04:51:53;8.85;;;4.70;;
29238;SDS011;16267;48.194;11.546;2023-09-12T04:54:19;6.18;;;4.50;;
29238;SDS011;16267;48.194;11.546;2023-09-12T04:56:45;10.13;;;4.78;;
29238;SDS011;16267;48.194;11.546;2023-09-12T04:59:11;5.40;;;4.00;;
29238;SDS011;16267;48.194;11.546;2023-09-12T05:01:36;6.07;;;4.10;;
29238;SDS011;16267;48.194;11.546;2023-09-12T05:04:02;8.07;;;4.35;;
29238;SDS011;16267;48.194;11.546;2023-09-12T05:06:28;7.10;;;4.45;;
29238;SDS011;16267;48.194;11.546;2023-09-12T05:08:54;8.13;;;4.40;;
29238;SDS011;16267;48.194;11.546;2023-09-12T05:11:22;7.93;;;4.85;;
29238;SDS011;16267;48.194;11.546;2023-09-12T05:13:51;7.28;;;4.50;;
29238;SDS011;16267;48.194;11.546;2023-09-12T05:16:17;7.18;;;4.15;;
29238;SDS011;16267;48.194;11.546;2023-09-12T05:18:42;8.07;;;4.95;;
29238;SDS011;16267;48.194;11.546;2023-09-12T05:21:08;7.13;;;4.15;;
29238;SDS011;16267;48.194;11.546;2023-09-12T05:23:34;7.25;;;4.80;;
29238;SDS011;16267;48.194;11.546;2023-09-12T05:26:00;7.70;;;5.15;;
29238;SDS011;16267;48.194;11.546;2023-09-12T05:28:26;8.57;;;4.55;;
29238;SDS011;16267;48.194;11.546;2023-09-12T05:30:52;8.57;;;4.82;;
29238;SDS011;16267;48.194;11.546;2023-09-12T05:33:18;7.50;;;4.78;;
29238;SDS011;16267;48.194;11.546;2023-09-12T05:35:43;7.40;;;4.70;;
29238;SDS011;16267;48.194;11.546;2023-09-12T05:38:09;8.52;;;4.72;;
29238;SDS011;16267;48.194;11.546;2023-09-12T05:40:36;7.78;;;4.72;;
29238;SDS011;16267;48.194;11.546;2023-09-12T05:43:02;6.82;;;3.97;;
29238;SDS011;16267;48.194;11.546;2023-09-12T05:45:28;7.60;;;4.28;;
29238;SDS011;16267;48.194;11.546;2023-09-12T05:47:55;6.88;;;4.30;;
29238;SDS011;16267;48.194;11.546;2023-09-12T05:50:21;6.57;;;4.25;;
29238;SDS011;16267;48.194;11.546;2023-09-12T05:52:48;12.95;;;4.97;;
29238;SDS011;16267;48.194;11.546;2023-09-12T05:55:14;6.75;;;4.32;;
29238;SDS011;16267;48.194;11.546;2023-09-12T05:57:39;8.63;;;5.15;;
29238;SDS011;16267;48.194;11.546;2023-09-12T06:00:05;7.40;;;4.65;;
29238;SDS011;16267;48.194;11.546;2023-09-12T06:02:36;8.07;;;5.10;;
29238;SDS011;16267;48.194;11.546;2023-09-12T06:05:03;8.65;;;4.38;;
29238;SDS011;16267;48.194;11.546;2023-09-12T06:07:30;7.00;;;4.60;;
29238;SDS011;16267;48.194;11.546;2023-09-12T06:09:57;8.10;;;4.38;;
29238;SDS011;16267;48.194;11.546;2023-09-12T06:12:23;7.75;;;4.43;;
29238;SDS011;16267;48.194;11.546;2023-09-12T06:14:48;6.00;;;4.30;;
29238;SDS011;16267;48.194;11.546;2023-09-12T06:17:18;8.98;;;5.10;;
29238;SDS011;16267;48.194;11.546;2023-09-12T06:19:43;7.75;;;4.80;;
29238;SDS011;16267;48.194;11.546;2023-09-12T06:22:10;9.00;;;4.85;;
29238;SDS011;16267;48.194;11.546;2023-09-12T06:24:36;6.70;;;4.43;;
29238;SDS011;16267;48.194;11.546;2023-09-12T06:27:04;7.40;;;4.40;;
29238;SDS011;16267;48.194;11.546;2023-09-12T06:29:30;7.35;;;4.82;;
29238;SDS011;16267;48.194;11.546;2023-09-12T06:31:55;7.13;;;4.60;;
29238;SDS011;16267;48.194;11.546;2023-09-12T06:34:21;10.75;;;5.28;;
29238;SDS011;16267;48.194;11.546;2023-09-12T06:36:57;10.10;;;5.25;;
29238;SDS011;16267;48.194;11.546;2023-09-12T06:39:23;7.07;;;4.25;;
29238;SDS011;16267;48.194;11.546;2023-09-12T06:41:49;11.55;;;4.63;;
29238;SDS011;16267;48.194;11.546;2023-09-12T06:44:15;10.73;;;4.85;;
29238;SDS011;16267;48.194;11.546;2023-09-12T06:46:40;6.57;;;4.13;;
29238;SDS011;16267;48.194;11.546;2023-09-12T06:49:06;7.88;;;4.70;;
29238;SDS011;16267;48.194;11.546;2023-09-12T06:51:32;7.85;;;4.43;;
29238;SDS011;16267;48.194;11.546;2023-09-12T06:53:57;7.53;;;4.65;;
29238;SDS011;16267;48.194;11.546;2023-09-12T06:56:23;7.72;;;4.57;;
29238;SDS011;16267;48.194;11.546;2023-09-12T06:58:49;8.55;;;4.53;;
29238;SDS011;16267;48.194;11.546;2023-09-12T07:01:15;8.60;;;4.68;;
29238;SDS011;16267;48.194;11.546;2023-09-12T07:03:40;7.40;;;4.32;;
29238;SDS011;16267;48.194;11.546;2023-09-12T07:06:06;7.18;;;4.30;;
29238;SDS011;16267;48.194;11.546;2023-09-12T07:08:33;6.88;;;4.38;;
29238;SDS011;16267;48.194;11.546;2023-09-12T07:10:59;5.85;;;4.00;;
29238;SDS011;16267;48.194;11.546;2023-09-12T07:13:30;6.45;;;4.35;;
29238;SDS011;16267;48.194;11.546;2023-09-12T07:15:57;10.90;;;4.78;;
29238;SDS011;16267;48.194;11.546;2023-09-12T07:18:23;6.78;;;3.97;;
29238;SDS011;16267;48.194;11.546;2023-09-12T07:21:02;6.38;;;4.28;;
29238;SDS011;16267;48.194;11.546;2023-09-12T07:23:29;6.25;;;3.92;;
29238;SDS011;16267;48.194;11.546;2023-09-12T07:25:56;6.32;;;4.40;;
29238;SDS011;16267;48.194;11.546;2023-09-12T07:28:25;7.63;;;4.70;;
29238;SDS011;16267;48.194;11.546;2023-09-12T07:30:52;8.30;;;4.65;;
29238;SDS011;16267;48.194;11.546;2023-09-12T07:33:21;10.65;;;5.65;;
29238;SDS011;16267;48.194;11.546;2023-09-12T07:35:48;7.55;;;4.35;;
29238;SDS011;16267;48.194;11.546;2023-09-12T07:38:17;8.07;;;4.75;;
29238;SDS011;16267;48.194;11.546;2023-09-12T07:40:44;6.40;;;4.35;;
29238;SDS011;16267;48.194;11.546;2023-09-12T07:43:10;6.88;;;4.32;;
29238;SDS011;16267;48.194;11.546;2023-09-12T07:45:36;5.45;;;3.97;;
29238;SDS011;16267;48.194;11.546;2023-09-12T07:48:06;8.10;;;4.88;;
29238;SDS011;16267;48.194;11.546;2023-09-12T07:50:33;6.57;;;3.95;;
29238;SDS011;16267;48.194;11.546;2023-09-12T07:52:59;5.97;;;4.20;;
29238;SDS011;16267;48.194;11.546;2023-09-12T07:55:25;6.20;;;3.75;;
29238;SDS011;16267;48.194;11.546;2023-09-12T07:57:55;7.40;;;4.05;;
29238;SDS011;16267;48.194;11.546;2023-09-12T08:00:20;7.10;;;4.32;;
29238;SDS011;16267;48.194;11.546;2023-09-12T08:02:46;5.63;;;3.78;;
29238;SDS011;16267;48.194;11.546;2023-09-12T08:05:12;6.05;;;3.60;;
29238;SDS011;16267;48.194;11.546;2023-09-12T08:07:38;6.72;;;4.50;;
29238;SDS011;16267;48.194;11.546;2023-09-12T08:10:04;8.85;;;4.13;;
29238;SDS011;16267;48.194;11.546;2023-09-12T08:12:30;6.78;;;4.15;;
29238;SDS011;16267;48.194;11.546;2023-09-12T08:14:56;7.22;;;4.43;;
29238;SDS011;16267;48.194;11.546;2023-09-12T08:17:22;6.22;;;4.03;;
29238;SDS011;16267;48.194;11.546;2023-09-12T08:19:48;6.93;;;4.05;;
29238;SDS011;16267;48.194;11.546;2023-09-12T08:22:14;5.53;;;3.70;;
29238;SDS011;16267;48.194;11.546;2023-09-12T08:24:41;7.10;;;4.05;;
29238;SDS011;16267;48.194;11.546;2023-09-12T08:27:07;5.68;;;3.85;;
29238;SDS011;16267;48.194;11.546;2023-09-12T08:29:34;6.38;;;3.58;;
29238;SDS011;16267;48.194;11.546;2023-09-12T08:32:00;5.10;;;4.05;;
29238;SDS011;16267;48.194;11.546;2023-09-12T08:34:27;6.13;;;4.03;;
29238;SDS011;16267;48.194;11.546;2023-09-12T08:36:53;6.85;;;4.10;;
29238;SDS011;16267;48.194;11.546;2023-09-12T08:39:28;7.10;;;4.30;;
29238;SDS011;16267;48.194;11.546;2023-09-12T08:42:13;5.43;;;4.03;;
29238;SDS011;16267;48.194;11.546;2023-09-12T08:44:40;5.45;;;3.97;;
29238;SDS011;16267;48.194;11.546;2023-09-12T08:47:11;10.00;;;4.25;;
29238;SDS011;16267;48.194;11.546;2023-09-12T08:49:37;5.57;;;3.95;;
29238;SDS011;16267;48.194;11.546;2023-09-12T08:52:04;5.15;;;3.95;;
29238;SDS011;16267;48.194;11.546;2023-09-12T08:54:31;6.70;;;4.00;;
29238;SDS011;16267;48.194;11.546;2023-09-12T08:56:58;5.50;;;3.70;;
29238;SDS011;16267;48.194;11.546;2023-09-12T08:59:28;5.35;;;3.83;;
29238;SDS011;16267;48.194;11.546;2023-09-12T09:01:57;5.20;;;4.15;;
29238;SDS011;16267;48.194;11.546;2023-09-12T09:04:24;5.90;;;3.38;;
29238;SDS011;16267;48.194;11.546;2023-09-12T09:06:54;5.97;;;4.05;;
29238;SDS011;16267;48.194;11.546;2023-09-12T09:09:22;5.40;;;3.50;;
29238;SDS011;16267;48.194;11.546;2023-09-12T09:11:49;4.90;;;3.92;;
29238;SDS011;16267;48.194;11.546;2023-09-12T09:14:15;9.15;;;3.70;;
29238;SDS011;16267;48.194;11.546;2023-09-12T09:16:41;4.70;;;3.53;;
29238;SDS011;16267;48.194;11.546;2023-09-12T09:19:06;5.78;;;3.92;;
29238;SDS011;16267;48.194;11.546;2023-09-12T09:21:34;6.35;;;3.83;;
29238;SDS011;16267;48.194;11.546;2023-09-12T09:24:06;5.85;;;3.45;;
29238;SDS011;16267;48.194;11.546;2023-09-12T09:26:51;5.30;;;3.30;;
29238;SDS011;16267;48.194;11.546;2023-09-12T09:29:24;5.30;;;3.75;;
29238;SDS011;16267;48.194;11.546;2023-09-12T09:31:50;9.82;;;4.13;;
29238;SDS011;16267;48.194;11.546;2023-09-12T09:34:21;6.10;;;3.65;;
29238;SDS011;16267;48.194;11.546;2023-09-12T09:36:49;5.72;;;4.35;;
29238;SDS011;16267;48.194;11.546;2023-09-12T09:39:18;4.45;;;3.28;;
29238;SDS011;16267;48.194;11.546;2023-09-12T09:41:49;5.03;;;3.45;;
29238;SDS011;16267;48.194;11.546;2023-09-12T09:44:17;6.28;;;4.10;;
29238;SDS011;16267;48.194;11.546;2023-09-12T09:46:44;5.25;;;3.83;;
29238;SDS011;16267;48.194;11.546;2023-09-12T09:49:11;5.00;;;3.72;;
29238;SDS011;16267;48.194;11.546;2023-09-12T09:51:40;5.10;;;3.58;;
29238;SDS011;16267;48.194;11.546;2023-09-12T09:54:08;6.43;;;3.65;;
29238;SDS011;16267;48.194;11.546;2023-09-12T09:56:44;6.15;;;3.67;;
29238;SDS011;16267;48.194;11.546;2023-09-12T09:59:14;4.28;;;3.33;;
29238;SDS011;16267;48.194;11.546;2023-09-12T10:01:46;6.25;;;3.30;;
29238;SDS011;16267;48.194;11.546;2023-09-12T10:04:16;5.40;;;3.58;;
29238;SDS011;16267;48.194;11.546;2023-09-12T10:06:44;4.40;;;3.20;;
29238;SDS011;16267;48.194;11.546;2023-09-12T10:09:13;5.32;;;3.40;;
29238;SDS011;16267;48.194;11.546;2023-09-12T10:11:42;5.18;;;3.33;;
29238;SDS011;16267;48.194;11.546;2023-09-12T10:14:11;4.93;;;3.25;;
29238;SDS011;16267;48.194;11.546;2023-09-12T10:16:50;5.10;;;3.42;;
29238;SDS011;16267;48.194;11.546;2023-09-12T10:24:50;7.05;;;3.47;;
29238;SDS011;16267;48.194;11.546;2023-09-12T10:27:18;5.05;;;3.47;;
29238;SDS011;16267;48.194;11.546;2023-09-12T10:29:45;4.60;;;3.47;;
29238;SDS011;16267;48.194;11.546;2023-09-12T10:32:12;4.38;;;3.17;;
29238;SDS011;16267;48.194;11.546;2023-09-12T10:34:40;5.43;;;3.55;;
29238;SDS011;16267;48.194;11.546;2023-09-12T10:37:10;5.90;;;3.20;;
29238;SDS011;16267;48.194;11.546;2023-09-12T10:39:40;7.03;;;3.90;;
29238;SDS011;16267;48.194;11.546;2023-09-12T10:42:08;5.20;;;3.47;;
29238;SDS011;16267;48.194;11.546;2023-09-12T10:44:34;9.30;;;3.47;;
29238;SDS011;16267;48.194;11.546;2023-09-12T10:47:00;4.32;;;3.25;;
29238;SDS011;16267;48.194;11.546;2023-09-12T10:49:28;5.60;;;3.47;;
29238;SDS011;16267;48.194;11.546;2023-09-12T10:51:55;5.30;;;3.38;;
29238;SDS011;16267;48.194;11.546;2023-09-12T10:54:26;4.75;;;3.28;;
29238;SDS011;16267;48.194;11.546;2023-09-12T10:57:10;10.20;;;3.67;;
29238;SDS011;16267;48.194;11.546;2023-09-12T11:00:08;5.15;;;3.28;;
29238;SDS011;16267;48.194;11.546;2023-09-12T11:02:34;3.85;;;2.90;;
29238;SDS011;16267;48.194;11.546;2023-09-12T11:05:34;4.25;;;3.05;;
29238;SDS011;16267;48.194;11.546;2023-09-12T11:07:56;5.55;;;3.20;;
29238;SDS011;16267;48.194;11.546;2023-09-12T11:10:23;4.50;;;3.33;;
29238;SDS011;16267;48.194;11.546;2023-09-12T11:12:50;4.20;;;3.05;;
29238;SDS011;16267;48.194;11.546;2023-09-12T11:15:23;3.92;;;3.28;;
29238;SDS011;16267;48.194;11.546;2023-09-12T11:18:02;4.05;;;2.90;;
29238;SDS011;16267;48.194;11.546;2023-09-12T11:20:49;3.10;;;2.65;;
29238;SDS011;16267;48.194;11.546;2023-09-12T11:23:32;4.68;;;3.40;;
29238;SDS011;16267;48.194;11.546;2023-09-12T11:26:04;5.40;;;3.58;;
29238;SDS011;16267;48.194;11.546;2023-09-12T11:28:31;4.10;;;3.10;;
29238;SDS011;16267;48.194;11.546;2023-09-12T11:30:57;6.38;;;3.10;;
29238;SDS011;16267;48.194;11.546;2023-09-12T11:33:26;4.53;;;3.10;;
29238;SDS011;16267;48.194;11.546;2023-09-12T11:35:53;6.05;;;3.05;;
29238;SDS011;16267;48.194;11.546;2023-09-12T11:38:29;3.58;;;3.00;;
29238;SDS011;16267;48.194;11.546;2023-09-12T11:40:57;7.30;;;2.85;;
29238;SDS011;16267;48.194;11.546;2023-09-12T11:43:24;2.88;;;2.50;;
29238;SDS011;16267;48.194;11.546;2023-09-12T11:45:52;3.60;;;2.78;;
29238;SDS011;16267;48.194;11.546;2023-09-12T11:48:20;4.05;;;2.85;;
29238;SDS011;16267;48.194;11.546;2023-09-12T11:50:51;5.30;;;3.30;;
29238;SDS011;16267;48.194;11.546;2023-09-12T11:53:22;3.63;;;2.58;;
29238;SDS011;16267;48.194;11.546;2023-09-12T11:55:53;6.03;;;3.30;;
29238;SDS011;16267;48.194;11.546;2023-09-12T11:58:21;4.35;;;2.60;;
29238;SDS011;16267;48.194;11.546;2023-09-12T12:00:47;3.65;;;2.95;;
29238;SDS011;16267;48.194;11.546;2023-09-12T12:03:20;3.95;;;3.05;;
29238;SDS011;16267;48.194;11.546;2023-09-12T12:05:48;4.68;;;2.70;;
29238;SDS011;16267;48.194;11.546;2023-09-12T12:08:15;4.72;;;2.88;;
29238;SDS011;16267;48.194;11.546;2023-09-12T12:10:42;4.03;;;3.13;;
29238;SDS011;16267;48.194;11.546;2023-09-12T12:13:12;4.53;;;3.20;;
29238;SDS011;16267;48.194;11.546;2023-09-12T12:15:41;4.13;;;2.78;;
29238;SDS011;16267;48.194;11.546;2023-09-12T12:18:07;3.80;;;2.88;;
29238;SDS011;16267;48.194;11.546;2023-09-12T12:20:33;4.10;;;2.88;;
29238;SDS011;16267;48.194;11.546;2023-09-12T12:22:59;3.92;;;3.10;;
29238;SDS011;16267;48.194;11.546;2023-09-12T12:25:24;2.83;;;2.53;;
29238;SDS011;16267;48.194;11.546;2023-09-12T12:27:50;3.40;;;2.72;;
29238;SDS011;16267;48.194;11.546;2023-09-12T12:30:17;4.18;;;2.75;;
29238;SDS011;16267;48.194;11.546;2023-09-12T12:32:45;4.88;;;2.95;;
29238;SDS011;16267;48.194;11.546;2023-09-12T12:35:21;4.07;;;2.83;;
29238;SDS011;16267;48.194;11.546;2023-09-12T12:37:49;3.72;;;2.80;;
29238;SDS011;16267;48.194;11.546;2023-09-12T12:40:16;4.57;;;2.90;;
29238;SDS011;16267;48.194;11.546;2023-09-12T12:42:43;3.45;;;2.83;;
29238;SDS011;16267;48.194;11.546;2023-09-12T12:45:13;4.38;;;3.00;;
29238;SDS011;16267;48.194;11.546;2023-09-12T12:47:50;4.00;;;3.00;;
29238;SDS011;16267;48.194;11.546;2023-09-12T12:50:23;3.70;;;2.63;;
29238;SDS011;16267;48.194;11.546;2023-09-12T12:52:49;4.05;;;2.90;;
29238;SDS011;16267;48.194;11.546;2023-09-12T12:55:15;5.72;;;3.35;;
29238;SDS011;16267;48.194;11.546;2023-09-12T12:57:44;3.95;;;2.83;;
29238;SDS011;16267;48.194;11.546;2023-09-12T13:00:13;4.45;;;3.35;;
29238;SDS011;16267;48.194;11.546;2023-09-12T13:02:41;3.65;;;3.10;;
29238;SDS011;16267;48.194;11.546;2023-09-12T13:07:55;4.70;;;3.28;;
29238;SDS011;16267;48.194;11.546;2023-09-12T13:10:22;6.90;;;3.22;;
29238;SDS011;16267;48.194;11.546;2023-09-12T13:12:48;4.68;;;2.88;;
29238;SDS011;16267;48.194;11.546;2023-09-12T13:15:15;4.50;;;3.00;;
29238;SDS011;16267;48.194;11.546;2023-09-12T13:17:42;4.57;;;3.25;;
29238;SDS011;16267;48.194;11.546;2023-09-12T13:20:08;4.68;;;3.10;;
29238;SDS011;16267;48.194;11.546;2023-09-12T13:22:35;4.97;;;3.20;;
29238;SDS011;16267;48.194;11.546;2023-09-12T13:25:02;4.05;;;3.25;;
29238;SDS011;16267;48.194;11.546;2023-09-12T13:27:28;4.43;;;3.20;;
29238;SDS011;16267;48.194;11.546;2023-09-12T13:29:54;4.60;;;3.22;;
29238;SDS011;16267;48.194;11.546;2023-09-12T13:32:20;5.00;;;3.30;;
29238;SDS011;16267;48.194;11.546;2023-09-12T13:34:45;4.25;;;2.85;;
29238;SDS011;16267;48.194;11.546;2023-09-12T13:37:11;3.97;;;3.17;;
29238;SDS011;16267;48.194;11.546;2023-09-12T13:39:37;5.30;;;3.83;;
29238;SDS011;16267;48.194;11.546;2023-09-12T13:42:03;4.30;;;2.80;;
29238;SDS011;16267;48.194;11.546;2023-09-12T13:44:33;4.13;;;3.28;;
29238;SDS011;16267;48.194;11.546;2023-09-12T13:46:59;3.45;;;2.97;;
29238;SDS011;16267;48.194;11.546;2023-09-12T13:49:24;3.90;;;3.08;;
29238;SDS011;16267;48.194;11.546;2023-09-12T13:51:50;6.43;;;3.20;;
29238;SDS011;16267;48.194;11.546;2023-09-12T13:54:16;5.05;;;3.65;;
29238;SDS011;16267;48.194;11.546;2023-09-12T13:56:41;6.38;;;3.30;;
29238;SDS011;16267;48.194;11.546;2023-09-12T13:59:08;4.70;;;3.28;;
29238;SDS011;16267;48.194;11.546;2023-09-12T14:01:34;5.57;;;3.00;;
29238;SDS011;16267;48.194;11.546;2023-09-12T14:04:00;4.03;;;3.22;;
29238;SDS011;16267;48.194;11.546;2023-09-12T14:06:27;4.80;;;3.42;;
29238;SDS011;16267;48.194;11.546;2023-09-12T14:08:53;3.20;;;2.67;;
29238;SDS011;16267;48.194;11.546;2023-09-12T14:11:19;3.47;;;2.90;;
29238;SDS011;16267;48.194;11.546;2023-09-12T14:13:44;7.07;;;2.63;;
29238;SDS011;16267;48.194;11.546;2023-09-12T14:16:10;3.95;;;2.78;;
29238;SDS011;16267;48.194;11.546;2023-09-12T14:18:36;3.67;;;2.80;;
29238;SDS011;16267;48.194;11.546;2023-09-12T14:21:02;3.80;;;3.00;;
29238;SDS011;16267;48.194;11.546;2023-09-12T14:23:28;5.22;;;3.53;;
29238;SDS011;16267;48.194;11.546;2023-09-12T14:25:54;4.60;;;3.35;;
29238;SDS011;16267;48.194;11.546;2023-09-12T14:28:19;5.43;;;3.10;;
29238;SDS011;16267;48.194;11.546;2023-09-12T14:30:45;4.30;;;3.10;;
29238;SDS011;16267;48.194;11.546;2023-09-12T14:33:13;6.82;;;3.53;;
29238;SDS011;16267;48.194;11.546;2023-09-12T14:35:39;4.55;;;3.20;;
29238;SDS011;16267;48.194;11.546;2023-09-12T14:38:06;5.50;;;3.40;;
29238;SDS011;16267;48.194;11.546;2023-09-12T14:40:32;4.85;;;3.30;;
29238;SDS011;16267;48.194;11.546;2023-09-12T14:42:59;5.13;;;3.17;;
29238;SDS011;16267;48.194;11.546;2023-09-12T14:45:25;3.58;;;2.80;;
29238;SDS011;16267;48.194;11.546;2023-09-12T14:47:52;6.40;;;3.30;;
29238;SDS011;16267;48.194;11.546;2023-09-12T14:50:20;5.13;;;3.53;;
29238;SDS011;16267;48.194;11.546;2023-09-12T14:52:54;4.80;;;3.15;;
29238;SDS011;16267;48.194;11.546;2023-09-12T14:55:20;4.18;;;2.97;;